Time;durP1;ratioP1;P1;durP2;ratioP2;P2;SDS_P1;SDS_P2;PMS_P1;PMS_P2;Temp;Humidity;BMP_temperature;BMP_pressure;BME280_temperature;BME280_humidity;BME280_pressure;Samples;Min_cycle;Max_cycle;Signal;HPM_P1;HPM_P2
2021/10/14 00:01:05;;;;;;;7.93;5.40;;;;;;;7.16;70.71;97638.00;5072299;28;20667;-66
2021/10/14 00:03:31;;;;;;;8.50;5.90;;;;;;;7.13;70.62;97642.59;5072282;28;20202;-65
2021/10/14 00:05:57;;;;;;;6.07;5.47;;;;;;;7.10;71.19;97643.69;5071066;28;20260;-66
2021/10/14 00:08:22;;;;;;;7.90;5.53;;;;;;;7.27;70.36;97642.34;5072016;28;20187;-66
2021/10/14 00:10:48;;;;;;;10.73;6.10;;;;;;;7.42;70.18;97626.44;5072418;28;20184;-66
2021/10/14 00:13:13;;;;;;;6.77;5.30;;;;;;;7.21;70.17;97628.03;5056106;28;20198;-66
2021/10/14 00:15:40;;;;;;;6.50;4.97;;;;;;;7.05;71.26;97627.59;5061800;28;20186;-66
2021/10/14 00:18:06;;;;;;;6.03;5.13;;;;;;;7.27;70.45;97631.09;5064624;28;20189;-66
2021/10/14 00:20:32;;;;;;;7.90;5.47;;;;;;;7.05;70.99;97619.75;5072402;28;20421;-65
2021/10/14 00:22:57;;;;;;;10.73;5.07;;;;;;;6.89;71.90;97626.16;5064715;28;20700;-65
2021/10/14 00:25:23;;;;;;;6.93;5.20;;;;;;;6.97;71.28;97628.19;5072536;28;20178;-66
2021/10/14 00:27:49;;;;;;;7.10;5.33;;;;;;;7.04;70.82;97628.53;5071877;28;20357;-65
2021/10/14 00:30:15;;;;;;;8.17;5.77;;;;;;;6.98;70.96;97618.56;5072149;28;20178;-65
2021/10/14 00:32:41;;;;;;;7.13;5.33;;;;;;;7.00;71.32;97624.50;5072036;28;20433;-66
2021/10/14 00:35:07;;;;;;;7.97;5.63;;;;;;;7.19;70.15;97624.69;5072369;28;20514;-66
2021/10/14 00:37:33;;;;;;;7.90;5.50;;;;;;;7.16;70.36;97627.56;5071115;28;20194;-65
2021/10/14 00:39:58;;;;;;;8.47;5.90;;;;;;;7.19;69.80;97632.53;5071835;28;20425;-66
2021/10/14 00:42:24;;;;;;;11.80;6.73;;;;;;;7.19;69.95;97634.31;5071781;28;20684;-66
2021/10/14 00:44:54;;;;;;;7.07;5.40;;;;;;;6.93;70.98;97637.16;5065374;28;20195;-64
2021/10/14 00:47:24;;;;;;;8.07;6.27;;;;;;;6.94;70.93;97632.78;5071210;28;20191;-66
2021/10/14 00:49:51;;;;;;;9.43;6.23;;;;;;;7.02;70.70;97626.03;5071762;28;20500;-64
2021/10/14 00:52:16;;;;;;;8.37;5.93;;;;;;;6.88;71.20;97632.31;5064522;28;20468;-65
2021/10/14 00:54:44;;;;;;;7.50;5.97;;;;;;;7.05;70.95;97628.41;5071989;28;20926;-66
2021/10/14 00:57:12;;;;;;;6.93;5.87;;;;;;;7.11;70.41;97626.28;5071416;28;20269;-65
2021/10/14 00:59:38;;;;;;;14.33;6.77;;;;;;;6.98;70.99;97621.19;5074519;28;20827;-65
2021/10/14 01:02:04;;;;;;;10.10;6.37;;;;;;;6.99;70.99;97625.44;5070929;28;20961;-66
2021/10/14 01:04:30;;;;;;;12.30;6.90;;;;;;;6.68;71.68;97628.63;5070381;28;20452;-65
2021/10/14 01:06:56;;;;;;;7.53;5.83;;;;;;;6.85;71.04;97623.91;5063277;28;20515;-66
2021/10/14 01:09:22;;;;;;;13.60;5.97;;;;;;;6.79;71.54;97626.97;5070590;28;20986;-66
2021/10/14 01:11:47;;;;;;;8.23;7.00;;;;;;;7.01;70.63;97620.94;5071640;28;20198;-65
2021/10/14 01:14:13;;;;;;;7.67;6.10;;;;;;;6.92;70.89;97617.28;5061356;28;20178;-65
2021/10/14 01:16:46;;;;;;;7.83;5.70;;;;;;;6.81;71.34;97622.50;5055064;28;20217;-65
2021/10/14 01:19:13;;;;;;;9.60;6.37;;;;;;;6.89;71.17;97631.38;5075689;28;20659;-66
2021/10/14 01:21:39;;;;;;;9.93;6.33;;;;;;;6.79;70.90;97630.44;5065496;28;20445;-65
2021/10/14 01:24:05;;;;;;;8.20;6.60;;;;;;;6.74;71.13;97632.53;5069662;28;20454;-66
2021/10/14 01:26:31;;;;;;;9.70;5.13;;;;;;;6.87;70.49;97632.41;5069567;28;20864;-66
2021/10/14 01:28:57;;;;;;;15.80;6.40;;;;;;;6.83;70.55;97631.03;5070556;28;20524;-65
2021/10/14 01:31:24;;;;;;;9.00;5.50;;;;;;;6.83;70.52;97618.81;5066792;28;20657;-64
2021/10/14 01:33:49;;;;;;;9.10;6.77;;;;;;;6.85;71.14;97614.31;5070364;28;20440;-66
2021/10/14 01:36:15;;;;;;;6.90;5.43;;;;;;;6.96;70.03;97621.31;5072885;28;20428;-65
2021/10/14 01:38:41;;;;;;;12.37;6.07;;;;;;;6.80;70.71;97621.66;5070227;28;20189;-66
2021/10/14 01:41:06;;;;;;;10.97;6.43;;;;;;;6.84;70.49;97604.84;5070110;28;20193;-65
2021/10/14 01:43:34;;;;;;;8.27;5.93;;;;;;;6.91;70.51;97594.75;5070722;28;20629;-65
2021/10/14 01:46:00;;;;;;;12.50;5.90;;;;;;;6.97;70.11;97598.66;5056328;28;20253;-65
2021/10/14 01:48:27;;;;;;;8.07;5.13;;;;;;;7.03;69.91;97595.59;5069492;28;20420;-68
2021/10/14 01:50:56;;;;;;;9.80;6.10;;;;;;;7.02;70.08;97602.56;5066958;28;20993;-65
2021/10/14 01:53:22;;;;;;;7.43;5.80;;;;;;;6.82;70.59;97598.91;5074962;28;20444;-65
2021/10/14 01:55:48;;;;;;;8.90;6.00;;;;;;;6.84;70.61;97599.63;5074435;28;20421;-66
2021/10/14 01:58:13;;;;;;;8.70;5.70;;;;;;;6.74;70.99;97603.88;5071458;28;20179;-65
2021/10/14 02:00:41;;;;;;;9.03;5.90;;;;;;;6.86;70.64;97602.94;5070721;28;20629;-65
2021/10/14 02:03:07;;;;;;;6.63;5.50;;;;;;;6.70;71.13;97603.31;5075212;28;20206;-65
2021/10/14 02:05:32;;;;;;;10.80;6.20;;;;;;;6.75;71.16;97602.94;5074842;28;20431;-65
2021/10/14 02:07:58;;;;;;;9.23;5.70;;;;;;;6.78;70.81;97594.91;5074367;28;20229;-66
2021/10/14 02:10:24;;;;;;;7.10;6.03;;;;;;;6.79;70.70;97600.94;5075304;28;20748;-66
2021/10/14 02:12:52;;;;;;;10.80;5.00;;;;;;;6.87;70.33;97599.38;5073711;28;20531;-66
2021/10/14 02:15:17;;;;;;;9.53;5.33;;;;;;;7.03;69.72;97593.00;5069086;28;20273;-65
2021/10/14 02:17:43;;;;;;;10.03;4.70;;;;;;;7.14;69.44;97595.56;5069426;28;21012;-65
2021/10/14 02:20:09;;;;;;;11.57;5.63;;;;;;;7.15;69.26;97592.03;5079789;28;20214;-66
2021/10/14 02:22:34;;;;;;;6.80;4.90;;;;;;;7.29;68.59;97587.50;5070045;28;20573;-66
2021/10/14 02:25:00;;;;;;;6.00;4.87;;;;;;;7.29;68.47;97584.88;5081703;28;20182;-65
2021/10/14 02:27:25;;;;;;;6.07;5.47;;;;;;;7.32;68.07;97589.84;5083205;28;20204;-65
2021/10/14 02:29:51;;;;;;;7.83;4.60;;;;;;;7.40;67.79;97591.84;5078393;28;20179;-67
2021/10/14 02:32:17;;;;;;;7.73;4.57;;;;;;;7.28;68.15;97593.66;5074125;28;20198;-66
2021/10/14 02:34:42;;;;;;;8.17;5.00;;;;;;;7.31;68.00;97590.81;5073605;28;20258;-66
2021/10/14 02:37:08;;;;;;;9.97;4.43;;;;;;;7.28;67.75;97591.88;5073357;28;20191;-65
2021/10/14 02:39:34;;;;;;;5.17;4.43;;;;;;;7.29;67.74;97596.13;5078585;28;20828;-66
2021/10/14 02:41:59;;;;;;;5.53;4.63;;;;;;;7.34;67.71;97593.16;5075729;28;20198;-64
2021/10/14 02:44:25;;;;;;;8.17;4.67;;;;;;;7.33;67.22;97592.34;5074551;28;20212;-65
2021/10/14 02:46:50;;;;;;;8.07;5.50;;;;;;;7.30;66.99;97591.75;5067526;28;20182;-66
2021/10/14 02:49:16;;;;;;;5.10;4.17;;;;;;;7.13;67.59;97599.13;5073647;28;20178;-65
2021/10/14 02:51:42;;;;;;;7.20;4.47;;;;;;;7.10;67.45;97596.75;5073899;28;20175;-64
2021/10/14 02:54:07;;;;;;;5.83;4.60;;;;;;;7.11;67.55;97588.00;5061851;28;20302;-64
2021/10/14 02:56:33;;;;;;;6.13;5.00;;;;;;;7.13;67.96;97593.06;5052290;28;20235;-64
2021/10/14 02:58:58;;;;;;;10.37;4.80;;;;;;;7.25;67.66;97591.28;5070454;28;20268;-64
2021/10/14 03:01:24;;;;;;;10.17;4.57;;;;;;;7.30;67.52;97594.38;5066958;28;20301;-65
2021/10/14 03:03:49;;;;;;;6.47;4.07;;;;;;;7.27;66.94;97592.00;5056368;28;20202;-64
2021/10/14 03:06:15;;;;;;;5.30;4.40;;;;;;;7.25;66.51;97599.09;5061228;28;20273;-65
2021/10/14 03:08:41;;;;;;;5.70;4.60;;;;;;;7.20;66.49;97595.06;5052798;28;20544;-66
2021/10/14 03:11:06;;;;;;;6.33;4.70;;;;;;;7.07;66.91;97597.84;5044714;28;20176;-65
2021/10/14 03:13:32;;;;;;;5.87;4.60;;;;;;;7.03;67.48;97608.63;5061255;28;20195;-65
2021/10/14 03:15:57;;;;;;;7.87;4.37;;;;;;;7.05;67.35;97598.91;5052909;28;20179;-65
2021/10/14 03:18:23;;;;;;;6.67;4.30;;;;;;;7.09;67.46;97602.91;5049838;28;20225;-65
2021/10/14 03:20:48;;;;;;;5.73;4.50;;;;;;;7.14;66.82;97605.16;5052622;28;20270;-63
2021/10/14 03:23:14;;;;;;;7.70;5.00;;;;;;;7.14;66.51;97608.59;5060378;28;20289;-66
2021/10/14 03:25:40;;;;;;;4.77;4.27;;;;;;;7.06;67.37;97600.53;5052987;28;20186;-65
2021/10/14 03:28:05;;;;;;;4.63;3.80;;;;;;;7.16;67.19;97604.09;5060918;28;20175;-65
2021/10/14 03:30:31;;;;;;;4.93;3.73;;;;;;;7.18;66.68;97599.56;5052632;28;20171;-65
2021/10/14 03:32:56;;;;;;;6.60;4.10;;;;;;;7.18;66.86;97603.97;5053914;28;20201;-64
2021/10/14 03:35:22;;;;;;;7.13;4.27;;;;;;;7.16;67.23;97595.44;5051336;28;20267;-64
2021/10/14 03:37:48;;;;;;;7.27;4.50;;;;;;;7.18;66.86;97590.94;5060871;28;20195;-65
2021/10/14 03:40:14;;;;;;;6.90;3.90;;;;;;;7.19;67.03;97587.38;5053019;28;20175;-65
2021/10/14 03:42:40;;;;;;;6.10;3.70;;;;;;;7.24;66.84;97595.69;5052835;28;20199;-65
2021/10/14 03:45:06;;;;;;;5.67;4.20;;;;;;;7.23;67.07;97588.81;5052242;28;20565;-66
2021/10/14 03:47:32;;;;;;;8.93;4.63;;;;;;;7.09;67.64;97589.88;5052192;28;20197;-66
2021/10/14 03:49:57;;;;;;;6.60;4.33;;;;;;;6.83;68.75;97595.34;5052079;28;20502;-65
2021/10/14 03:52:23;;;;;;;6.43;3.80;;;;;;;6.98;68.54;97589.91;5052568;28;20626;-65
2021/10/14 03:54:48;;;;;;;8.07;4.67;;;;;;;7.26;67.48;97598.16;5052127;28;20175;-65
2021/10/14 03:57:14;;;;;;;7.33;4.40;;;;;;;7.21;67.37;97606.34;5052300;28;20186;-65
2021/10/14 03:59:40;;;;;;;6.43;4.10;;;;;;;7.30;67.05;97603.00;5046993;28;20187;-65
2021/10/14 04:02:06;;;;;;;6.30;3.73;;;;;;;7.22;67.07;97610.63;5052542;28;20223;-64
2021/10/14 04:04:31;;;;;;;5.57;4.00;;;;;;;7.19;67.42;97613.47;5058026;28;20413;-65
2021/10/14 04:06:57;;;;;;;7.13;4.47;;;;;;;7.01;67.42;97607.91;5051632;28;20191;-66
2021/10/14 04:09:23;;;;;;;11.63;4.80;;;;;;;6.91;67.90;97615.59;5051807;28;20266;-65
2021/10/14 04:11:48;;;;;;;5.13;4.20;;;;;;;6.67;69.08;97613.13;5049255;28;20174;-65
2021/10/14 04:14:14;;;;;;;7.60;4.63;;;;;;;6.48;69.61;97617.13;5043734;28;20183;-65
2021/10/14 04:16:40;;;;;;;9.40;4.50;;;;;;;6.68;68.99;97617.41;5051704;28;20179;-65
2021/10/14 04:19:06;;;;;;;5.20;4.10;;;;;;;6.71;68.77;97628.41;5051508;28;20266;-65
2021/10/14 04:21:33;;;;;;;7.83;4.90;;;;;;;6.74;68.93;97628.16;5056899;28;20226;-65
2021/10/14 04:23:59;;;;;;;5.47;4.60;;;;;;;6.49;69.60;97629.22;5053769;28;20469;-65
2021/10/14 04:26:24;;;;;;;4.63;4.10;;;;;;;6.55;69.50;97633.13;5051533;28;20449;-64
2021/10/14 04:28:50;;;;;;;5.10;4.60;;;;;;;6.71;68.99;97633.63;5051242;28;20267;-64
2021/10/14 04:31:15;;;;;;;11.13;4.60;;;;;;;6.68;68.98;97639.06;5055814;28;20183;-66
2021/10/14 04:33:41;;;;;;;13.23;4.80;;;;;;;6.52;69.31;97639.41;5054880;28;20234;-64
2021/10/14 04:36:07;;;;;;;7.00;4.97;;;;;;;6.70;69.03;97641.53;5049996;28;20199;-66
2021/10/14 04:38:32;;;;;;;8.00;5.20;;;;;;;6.75;68.94;97634.22;5051281;28;20175;-66
2021/10/14 04:40:58;;;;;;;6.83;4.80;;;;;;;6.81;69.03;97632.91;5051070;28;20700;-64
2021/10/14 04:43:24;;;;;;;8.27;5.37;;;;;;;6.81;68.66;97644.16;5051620;28;20203;-66
2021/10/14 04:45:53;;;;;;;6.50;4.43;;;;;;;6.69;69.32;97638.13;5051485;28;20686;-66
2021/10/14 04:48:18;;;;;;;7.70;4.23;;;;;;;6.81;69.21;97632.91;5051096;28;20282;-66
2021/10/14 04:50:44;;;;;;;7.07;4.17;;;;;;;7.06;68.12;97631.81;5051321;28;20984;-65
2021/10/14 04:53:10;;;;;;;6.60;4.40;;;;;;;7.16;67.68;97626.72;5051161;28;20199;-65
2021/10/14 04:55:35;;;;;;;6.73;3.80;;;;;;;7.25;67.23;97633.00;5051296;28;20945;-66
2021/10/14 04:58:01;;;;;;;11.30;4.63;;;;;;;7.08;67.45;97635.13;5051000;28;20260;-66
2021/10/14 05:00:27;;;;;;;6.43;4.70;;;;;;;7.01;67.94;97632.19;5051142;28;20245;-66
2021/10/14 05:02:52;;;;;;;8.03;3.90;;;;;;;7.27;67.25;97625.91;5052977;28;20219;-64
2021/10/14 05:05:18;;;;;;;5.10;4.20;;;;;;;7.16;67.36;97631.94;5049023;28;20225;-66
2021/10/14 05:07:44;;;;;;;16.93;3.90;;;;;;;7.15;67.19;97625.91;5050813;28;20175;-66
2021/10/14 05:10:09;;;;;;;4.90;4.10;;;;;;;7.19;67.40;97622.09;5058844;28;20664;-65
2021/10/14 05:12:36;;;;;;;15.33;4.57;;;;;;;7.09;67.56;97615.94;5058809;28;20198;-65
2021/10/14 05:15:06;;;;;;;7.93;4.60;;;;;;;7.18;67.53;97619.63;5043529;28;20186;-65
2021/10/14 05:17:32;;;;;;;10.07;4.80;;;;;;;7.27;67.16;97618.06;5050560;28;20521;-65
2021/10/14 05:19:57;;;;;;;6.00;4.20;;;;;;;7.44;66.55;97624.56;5051031;28;20508;-65
2021/10/14 05:22:23;;;;;;;9.67;4.40;;;;;;;7.53;66.22;97631.63;5053447;28;20208;-65
2021/10/14 05:24:48;;;;;;;6.60;4.03;;;;;;;7.59;66.10;97620.72;5048186;28;20262;-62
2021/10/14 05:27:14;;;;;;;4.80;4.00;;;;;;;7.63;65.77;97621.28;5060024;28;20198;-66
2021/10/14 05:29:39;;;;;;;6.70;5.17;;;;;;;7.72;65.33;97617.13;5052367;28;20505;-66
2021/10/14 05:32:05;;;;;;;5.97;4.37;;;;;;;7.64;65.58;97621.16;5051060;28;20274;-66
2021/10/14 05:34:31;;;;;;;10.27;6.70;;;;;;;7.53;66.33;97614.22;5046950;28;20186;-64
2021/10/14 05:36:56;;;;;;;6.80;4.97;;;;;;;7.59;65.59;97625.09;5058913;28;20446;-65
2021/10/14 05:39:22;;;;;;;5.73;4.17;;;;;;;7.63;65.60;97613.47;5050293;28;20209;-66
2021/10/14 05:41:47;;;;;;;7.47;3.60;;;;;;;7.49;66.33;97623.22;5051087;28;20290;-63
2021/10/14 05:44:13;;;;;;;9.73;4.70;;;;;;;7.15;67.35;97625.06;5053790;28;20592;-66
2021/10/14 05:46:38;;;;;;;7.60;3.77;;;;;;;7.32;66.65;97623.72;5055731;28;20183;-66
2021/10/14 05:49:04;;;;;;;6.40;4.47;;;;;;;7.30;66.55;97618.66;5050266;28;20242;-65
2021/10/14 05:51:30;;;;;;;5.03;3.77;;;;;;;7.24;66.89;97613.94;5051356;28;20194;-64
2021/10/14 05:53:55;;;;;;;9.07;5.13;;;;;;;7.09;67.74;97615.13;5050022;28;20199;-66
2021/10/14 05:56:23;;;;;;;5.97;4.20;;;;;;;7.49;66.84;97612.81;5049212;28;20178;-65
2021/10/14 05:58:48;;;;;;;7.30;4.60;;;;;;;7.30;66.88;97613.44;5049932;28;20190;-63
2021/10/14 06:01:14;;;;;;;11.27;4.90;;;;;;;7.34;66.96;97619.22;5041041;28;20869;-65
2021/10/14 06:03:39;;;;;;;6.90;4.50;;;;;;;7.26;67.66;97613.81;5050279;28;20199;-65
2021/10/14 06:06:05;;;;;;;25.33;5.43;;;;;;;7.42;67.02;97622.06;5049862;28;20274;-65
2021/10/14 06:08:31;;;;;;;5.90;4.27;;;;;;;7.48;66.70;97616.34;5055650;28;20194;-65
2021/10/14 06:10:56;;;;;;;11.60;4.47;;;;;;;7.91;65.52;97619.06;5052593;28;20187;-66
2021/10/14 06:13:22;;;;;;;6.47;4.10;;;;;;;8.02;65.38;97616.41;5053459;28;20673;-65
2021/10/14 06:15:47;;;;;;;7.93;4.57;;;;;;;8.10;65.48;97621.00;5070462;28;20193;-65
2021/10/14 06:18:13;;;;;;;8.13;4.33;;;;;;;8.35;64.58;97619.78;5064378;28;20578;-65
2021/10/14 06:20:38;;;;;;;5.40;4.70;;;;;;;8.42;64.49;97617.47;5070544;28;20233;-65
2021/10/14 06:23:06;;;;;;;7.20;4.50;;;;;;;8.28;64.65;97613.41;5062696;28;20300;-65
2021/10/14 06:25:32;;;;;;;9.50;5.00;;;;;;;8.48;64.55;97618.78;5070491;28;20193;-65
2021/10/14 06:27:57;;;;;;;7.70;4.40;;;;;;;8.69;63.73;97626.59;5070218;28;20432;-62
2021/10/14 06:30:23;;;;;;;6.70;4.50;;;;;;;8.70;63.25;97628.25;5071692;28;20416;-64
2021/10/14 06:32:48;;;;;;;9.77;5.00;;;;;;;8.79;63.53;97632.69;5072315;28;20677;-64
2021/10/14 06:35:14;;;;;;;13.20;7.47;;;;;;;8.89;63.28;97624.91;5074703;28;20182;-65
2021/10/14 06:37:39;;;;;;;10.83;7.07;;;;;;;9.04;63.39;97620.97;5074375;28;20187;-66
2021/10/14 06:40:06;;;;;;;8.10;5.27;;;;;;;9.15;62.60;97616.59;5066155;28;20761;-65
2021/10/14 06:42:31;;;;;;;8.20;6.00;;;;;;;9.26;62.50;97619.09;5066657;28;20210;-66
2021/10/14 06:44:57;;;;;;;7.03;4.73;;;;;;;9.31;61.92;97616.94;5074749;28;20523;-65
2021/10/14 06:47:22;;;;;;;9.43;4.30;;;;;;;9.45;61.94;97623.56;5073808;28;20206;-65
2021/10/14 06:49:48;;;;;;;16.23;4.93;;;;;;;9.49;61.53;97618.88;5077062;28;20187;-65
2021/10/14 06:52:16;;;;;;;8.87;4.53;;;;;;;9.21;62.71;97621.28;5060947;28;20685;-65
2021/10/14 06:54:41;;;;;;;9.00;5.40;;;;;;;9.11;62.84;97623.03;5077028;28;20467;-65
2021/10/14 06:57:07;;;;;;;8.50;4.57;;;;;;;8.98;62.79;97618.88;5071687;28;20417;-65
2021/10/14 06:59:33;;;;;;;6.20;4.37;;;;;;;9.01;62.26;97623.84;5075179;28;20677;-65
2021/10/14 07:01:58;;;;;;;12.17;5.60;;;;;;;9.39;61.56;97621.47;5072561;28;20206;-64
2021/10/14 07:04:24;;;;;;;9.07;4.93;;;;;;;9.58;60.89;97623.28;5061048;28;20198;-64
2021/10/14 07:06:50;;;;;;;7.23;5.17;;;;;;;9.62;60.39;97623.88;5069710;28;20273;-66
2021/10/14 07:09:15;;;;;;;4.87;3.87;;;;;;;9.57;60.68;97626.91;5065597;28;20420;-65
2021/10/14 07:11:51;;;;;;;8.37;4.70;;;;;;;9.84;60.25;97620.97;5058144;28;20255;-64
2021/10/14 07:14:17;;;;;;;6.33;4.40;;;;;;;9.98;59.74;97622.34;5058013;28;20178;-66
2021/10/14 07:16:43;;;;;;;7.97;4.57;;;;;;;10.37;59.36;97628.53;5068388;28;20418;-66
2021/10/14 07:19:08;;;;;;;8.60;4.90;;;;;;;10.47;58.27;97623.31;5071970;28;20190;-66
2021/10/14 07:21:34;;;;;;;9.60;4.70;;;;;;;10.35;58.47;97635.69;5067396;28;20209;-66
2021/10/14 07:24:00;;;;;;;17.60;4.37;;;;;;;9.99;59.18;97636.28;5071095;28;20554;-66
2021/10/14 07:26:25;;;;;;;6.40;4.60;;;;;;;10.00;59.74;97643.19;5073473;28;20182;-65
2021/10/14 07:28:51;;;;;;;5.73;3.87;;;;;;;10.19;59.15;97639.72;5072677;28;20186;-66
2021/10/14 07:31:17;;;;;;;11.40;5.50;;;;;;;10.38;58.90;97648.53;5072759;28;20186;-66
2021/10/14 07:33:43;;;;;;;7.43;4.67;;;;;;;10.15;59.39;97651.44;5073054;28;20198;-65
2021/10/14 07:36:09;;;;;;;5.20;4.10;;;;;;;9.65;60.99;97655.81;5072549;28;20665;-64
2021/10/14 07:38:35;;;;;;;7.03;4.47;;;;;;;9.74;61.09;97662.03;5072680;28;21081;-65
2021/10/14 07:41:00;;;;;;;5.97;3.83;;;;;;;10.01;59.48;97654.47;5071062;28;20432;-65
2021/10/14 07:43:26;;;;;;;7.07;4.40;;;;;;;10.22;58.94;97656.94;5060792;28;20718;-65
2021/10/14 07:45:52;;;;;;;7.93;3.90;;;;;;;10.19;59.21;97658.06;5064412;28;20209;-65
2021/10/14 07:48:17;;;;;;;6.87;3.97;;;;;;;10.05;59.50;97661.09;5072165;28;20186;-65
2021/10/14 07:50:43;;;;;;;6.50;5.30;;;;;;;10.52;58.64;97658.59;5072324;28;20725;-67
2021/10/14 07:53:14;;;;;;;6.67;4.20;;;;;;;10.64;58.56;97650.56;5072479;28;20280;-65
2021/10/14 07:55:40;;;;;;;5.00;3.63;;;;;;;10.81;57.52;97649.84;5072982;28;20261;-65
2021/10/14 07:58:12;;;;;;;8.50;4.07;;;;;;;11.00;58.05;97646.31;5070633;28;20425;-64
2021/10/14 08:00:39;;;;;;;5.93;3.80;;;;;;;11.30;56.94;97646.19;5068256;28;20444;-66
2021/10/14 08:03:05;;;;;;;8.90;4.30;;;;;;;11.49;56.65;97653.94;5072392;28;20495;-66
2021/10/14 08:05:31;;;;;;;6.77;4.20;;;;;;;11.31;56.40;97658.34;5073394;28;20425;-67
2021/10/14 08:07:58;;;;;;;8.37;4.50;;;;;;;11.54;55.74;97656.13;5064425;28;20497;-66
2021/10/14 08:10:24;;;;;;;7.27;3.60;;;;;;;11.52;55.84;97656.28;5072546;28;20417;-65
2021/10/14 08:12:49;;;;;;;6.97;4.13;;;;;;;11.74;55.51;97654.19;5059599;28;20448;-66
2021/10/14 08:15:15;;;;;;;6.23;4.40;;;;;;;11.73;55.59;97652.53;5072464;28;20806;-66
2021/10/14 08:17:41;;;;;;;5.57;4.50;;;;;;;11.89;55.44;97658.94;5066099;28;20197;-66
2021/10/14 08:20:08;;;;;;;11.43;4.07;;;;;;;12.18;54.75;97644.78;5072205;28;20552;-66
2021/10/14 08:22:36;;;;;;;7.17;4.10;;;;;;;12.42;53.60;97657.28;5064241;28;20218;-67
2021/10/14 08:25:06;;;;;;;8.80;4.13;;;;;;;12.78;53.03;97657.22;5071909;28;20424;-66
2021/10/14 08:27:32;;;;;;;4.17;3.53;;;;;;;12.84;52.15;97658.41;5071700;28;20481;-65
2021/10/14 08:29:57;;;;;;;4.30;3.90;;;;;;;13.18;51.85;97662.84;5071539;28;20427;-65
2021/10/14 08:32:23;;;;;;;3.87;3.47;;;;;;;12.47;52.90;97660.28;5071402;28;20626;-67
2021/10/14 08:34:49;;;;;;;5.27;3.80;;;;;;;13.01;51.71;97656.69;5071655;28;20549;-65
2021/10/14 08:37:20;;;;;;;5.00;3.93;;;;;;;12.87;52.00;97650.19;5062991;28;20194;-67
2021/10/14 08:39:47;;;;;;;8.47;4.13;;;;;;;13.03;50.77;97657.34;5071513;28;20182;-67
2021/10/14 08:42:13;;;;;;;7.60;3.30;;;;;;;12.89;51.13;97653.47;5061078;28;20464;-65
2021/10/14 08:44:40;;;;;;;8.30;3.47;;;;;;;13.03;50.69;97654.72;5071330;28;20524;-67
2021/10/14 08:47:07;;;;;;;7.10;3.50;;;;;;;12.99;51.36;97648.94;5070158;28;20510;-65
2021/10/14 08:49:33;;;;;;;5.10;3.73;;;;;;;12.50;52.30;97640.75;5071816;28;20424;-66
2021/10/14 08:51:59;;;;;;;4.97;3.40;;;;;;;12.54;52.09;97649.97;5069992;28;20190;-65
2021/10/14 08:54:24;;;;;;;6.47;3.20;;;;;;;12.53;52.82;97637.81;5071383;28;20190;-66
2021/10/14 08:56:50;;;;;;;3.90;3.37;;;;;;;11.93;53.13;97632.22;5071303;28;20487;-65
2021/10/14 08:59:20;;;;;;;2.90;2.60;;;;;;;12.31;53.55;97634.72;5070917;28;20590;-67
2021/10/14 09:02:10;;;;;;;11.63;2.80;;;;;;;11.96;53.28;97642.44;5071925;28;20279;-66
2021/10/14 09:04:42;;;;;;;4.80;2.90;;;;;;;13.11;51.48;97643.38;5061716;28;20448;-67
2021/10/14 09:07:19;;;;;;;5.10;3.20;;;;;;;13.66;49.72;97642.16;5071350;28;20428;-66
2021/10/14 09:09:46;;;;;;;5.10;3.17;;;;;;;13.26;50.98;97644.44;5069414;28;20428;-66
2021/10/14 09:12:13;;;;;;;4.03;3.53;;;;;;;13.29;50.96;97644.13;5058656;28;20826;-65
2021/10/14 09:14:54;;;;;;;12.37;3.13;;;;;;;13.73;49.34;97643.13;5050295;28;20410;-67
2021/10/14 09:17:20;;;;;;;5.57;2.90;;;;;;;13.29;49.99;97641.50;5056710;28;20882;-66
2021/10/14 09:19:46;;;;;;;4.60;3.10;;;;;;;13.03;49.60;97634.47;5069746;28;20483;-66
2021/10/14 09:22:16;;;;;;;4.40;2.63;;;;;;;13.44;48.29;97631.22;5063057;28;20962;-67
2021/10/14 09:24:42;;;;;;;4.20;3.00;;;;;;;13.91;47.39;97627.19;5071308;28;20502;-65
2021/10/14 09:27:09;;;;;;;4.67;2.63;;;;;;;14.04;46.77;97626.72;5068357;28;20424;-65
2021/10/14 09:29:37;;;;;;;4.80;2.83;;;;;;;13.92;46.66;97628.84;5053099;28;20422;-66
2021/10/14 09:32:15;;;;;;;4.83;2.50;;;;;;;13.64;46.51;97626.50;5066473;28;20432;-65
2021/10/14 09:34:42;;;;;;;2.50;2.23;;;;;;;14.50;45.17;97620.91;5070921;28;20408;-64
2021/10/14 09:37:14;;;;;;;2.90;2.50;;;;;;;14.47;45.17;97618.63;5070486;28;20489;-66
2021/10/14 09:40:01;;;;;;;6.50;3.20;;;;;;;14.52;45.30;97623.41;5070511;28;20417;-65
2021/10/14 09:42:44;;;;;;;4.93;2.70;;;;;;;14.40;44.92;97610.56;5044351;28;20547;-65
2021/10/14 09:45:17;;;;;;;3.43;2.57;;;;;;;15.32;43.79;97611.94;5070391;28;20971;-66
2021/10/14 09:48:08;;;;;;;5.43;2.90;;;;;;;15.43;43.25;97613.38;5070515;28;20942;-66
2021/10/14 09:50:36;;;;;;;4.60;2.60;;;;;;;15.33;43.28;97602.22;5058633;28;20408;-68
2021/10/14 09:53:04;;;;;;;6.27;2.50;;;;;;;15.79;42.42;97599.63;5070478;28;20445;-66
2021/10/14 09:55:29;;;;;;;5.70;2.63;;;;;;;15.42;42.13;97603.00;5070735;28;20452;-65
2021/10/14 09:57:55;;;;;;;4.03;2.60;;;;;;;15.51;42.61;97597.47;5070705;28;20457;-66
2021/10/14 10:00:22;;;;;;;3.83;2.70;;;;;;;15.91;41.65;97604.53;5062794;28;20274;-67
2021/10/14 10:02:48;;;;;;;3.47;2.33;;;;;;;15.38;42.64;97606.97;5071018;28;20464;-66
2021/10/14 10:05:13;;;;;;;3.67;2.43;;;;;;;15.48;41.20;97602.28;5069728;28;20428;-66
2021/10/14 10:07:43;;;;;;;5.40;2.43;;;;;;;15.69;41.19;97606.97;5063980;28;20183;-66
2021/10/14 10:10:09;;;;;;;4.00;2.60;;;;;;;15.35;41.88;97598.41;5050700;28;20658;-68
2021/10/14 10:12:36;;;;;;;5.33;2.80;;;;;;;15.45;42.14;97606.13;5054542;28;20523;-66
2021/10/14 10:15:02;;;;;;;3.90;2.20;;;;;;;15.60;41.62;97600.09;5075070;28;20466;-66
2021/10/14 10:17:39;;;;;;;4.53;2.40;;;;;;;15.78;40.71;97600.63;5062630;28;20433;-66
2021/10/14 10:20:06;;;;;;;3.10;2.43;;;;;;;16.50;39.45;97595.13;5073411;28;20931;-66
2021/10/14 10:22:48;;;;;;;5.23;2.03;;;;;;;16.66;39.13;97600.22;5066336;28;20532;-66
2021/10/14 10:25:17;;;;;;;3.20;2.17;;;;;;;16.01;39.56;97594.53;5058984;28;20423;-65
2021/10/14 10:27:43;;;;;;;4.70;2.50;;;;;;;16.26;39.67;97599.59;5074944;28;20413;-66
2021/10/14 10:30:08;;;;;;;5.93;2.60;;;;;;;16.34;39.29;97604.00;5074511;28;20516;-65
2021/10/14 10:32:46;;;;;;;9.73;2.70;;;;;;;15.83;40.35;97597.44;5073834;28;20285;-67
2021/10/14 10:35:44;;;;;;;4.07;2.57;;;;;;;16.40;39.58;97601.47;5074981;28;20186;-65
2021/10/14 10:38:15;;;;;;;2.50;2.30;;;;;;;15.82;39.83;97607.19;5084355;28;20422;-66
2021/10/14 10:40:42;;;;;;;3.60;2.40;;;;;;;16.85;38.17;97598.03;5078073;28;20484;-66
2021/10/14 10:43:11;;;;;;;6.70;2.23;;;;;;;17.02;38.13;97598.72;5070571;28;20919;-65
2021/10/14 10:45:49;;;;;;;5.20;2.90;;;;;;;15.96;40.30;97599.53;5080914;28;20880;-66
2021/10/14 10:48:16;;;;;;;4.83;2.40;;;;;;;16.06;40.42;97592.19;5056469;28;20416;-65
2021/10/14 10:50:52;;;;;;;4.47;2.50;;;;;;;16.23;40.12;97598.16;5062643;28;20966;-66
2021/10/14 10:53:38;;;;;;;5.10;2.80;;;;;;;16.34;40.03;97593.41;5074363;28;20568;-64
2021/10/14 10:56:04;;;;;;;5.53;2.60;;;;;;;16.62;39.01;97592.84;5073500;28;20508;-66
2021/10/14 10:58:32;;;;;;;4.23;2.73;;;;;;;16.10;40.39;97590.00;5073634;28;20441;-65
2021/10/14 11:00:59;;;;;;;5.60;2.87;;;;;;;15.51;41.39;97594.84;5073783;28;20478;-66
2021/10/14 11:03:26;;;;;;;3.77;3.40;;;;;;;16.31;40.44;97591.16;5073874;28;20480;-65
2021/10/14 11:05:58;;;;;;;11.83;2.90;;;;;;;16.88;39.91;97577.31;5073857;28;20421;-65
2021/10/14 11:08:33;;;;;;;6.33;2.93;;;;;;;17.17;39.17;97578.34;5073417;28;20432;-65
2021/10/14 11:11:19;;;;;;;11.73;3.30;;;;;;;16.56;40.27;97574.03;5072636;28;20478;-64
2021/10/14 11:13:48;;;;;;;5.13;3.00;;;;;;;16.41;40.52;97563.44;5068488;28;20494;-66
2021/10/14 11:16:16;;;;;;;4.97;2.77;;;;;;;16.50;40.17;97569.47;5079014;28;20417;-66
2021/10/14 11:18:44;;;;;;;3.33;2.83;;;;;;;16.37;40.58;97567.47;5072800;28;20416;-66
2021/10/14 11:21:12;;;;;;;14.63;3.47;;;;;;;16.26;40.63;97562.59;5061779;28;20409;-67
2021/10/14 11:23:39;;;;;;;4.90;3.10;;;;;;;16.81;39.99;97565.00;5068408;28;20986;-65
2021/10/14 11:26:09;;;;;;;4.50;3.00;;;;;;;17.43;38.87;97561.09;5082992;28;20436;-66
2021/10/14 11:28:57;;;;;;;2.93;2.53;;;;;;;17.56;39.12;97557.75;5074338;28;20911;-66
2021/10/14 11:31:36;;;;;;;9.43;2.83;;;;;;;17.38;39.73;97554.72;5060291;28;20436;-67
2021/10/14 11:34:21;;;;;;;4.03;2.90;;;;;;;17.09;40.44;97553.78;5074141;28;20554;-65
2021/10/14 11:36:49;;;;;;;4.17;3.37;;;;;;;16.72;41.58;97559.81;5072624;28;20421;-66